sensor_id;sensor_type;location;lat;lon;timestamp;P1;durP1;ratioP1;P2;durP2;ratioP2
25049;SDS011;13046;49.814;9.918;2024-02-23T00:02:19;0.63;;;0.63;;
25049;SDS011;13046;49.814;9.918;2024-02-23T00:04:45;1.27;;;0.70;;
25049;SDS011;13046;49.814;9.918;2024-02-23T00:07:11;0.70;;;0.60;;
25049;SDS011;13046;49.814;9.918;2024-02-23T00:09:37;0.70;;;0.70;;
25049;SDS011;13046;49.814;9.918;2024-02-23T00:12:04;0.70;;;0.70;;
25049;SDS011;13046;49.814;9.918;2024-02-23T00:14:30;0.95;;;0.70;;
25049;SDS011;13046;49.814;9.918;2024-02-23T00:16:56;2.45;;;0.80;;
25049;SDS011;13046;49.814;9.918;2024-02-23T00:19:24;1.80;;;0.80;;
25049;SDS011;13046;49.814;9.918;2024-02-23T00:21:50;0.60;;;0.60;;
25049;SDS011;13046;49.814;9.918;2024-02-23T00:24:17;1.00;;;0.88;;
25049;SDS011;13046;49.814;9.918;2024-02-23T00:26:46;1.17;;;0.80;;
25049;SDS011;13046;49.814;9.918;2024-02-23T00:29:12;1.00;;;0.80;;
25049;SDS011;13046;49.814;9.918;2024-02-23T00:31:38;3.10;;;1.17;;
25049;SDS011;13046;49.814;9.918;2024-02-23T00:34:08;1.40;;;0.82;;
25049;SDS011;13046;49.814;9.918;2024-02-23T00:36:38;1.92;;;1.20;;
25049;SDS011;13046;49.814;9.918;2024-02-23T00:39:05;1.83;;;0.70;;
25049;SDS011;13046;49.814;9.918;2024-02-23T00:41:32;2.08;;;0.80;;
25049;SDS011;13046;49.814;9.918;2024-02-23T00:43:58;2.50;;;0.73;;
25049;SDS011;13046;49.814;9.918;2024-02-23T00:46:24;0.90;;;0.68;;
25049;SDS011;13046;49.814;9.918;2024-02-23T00:48:50;1.20;;;0.98;;
25049;SDS011;13046;49.814;9.918;2024-02-23T00:51:17;0.95;;;0.77;;
25049;SDS011;13046;49.814;9.918;2024-02-23T00:53:43;1.67;;;0.70;;
25049;SDS011;13046;49.814;9.918;2024-02-23T00:56:09;1.70;;;0.98;;
25049;SDS011;13046;49.814;9.918;2024-02-23T00:58:35;1.88;;;0.68;;
25049;SDS011;13046;49.814;9.918;2024-02-23T01:01:01;0.93;;;0.73;;
25049;SDS011;13046;49.814;9.918;2024-02-23T01:03:27;3.20;;;1.02;;
25049;SDS011;13046;49.814;9.918;2024-02-23T01:05:53;1.50;;;0.63;;
25049;SDS011;13046;49.814;9.918;2024-02-23T01:08:19;1.88;;;0.95;;
25049;SDS011;13046;49.814;9.918;2024-02-23T01:10:45;2.58;;;1.00;;
25049;SDS011;13046;49.814;9.918;2024-02-23T01:13:11;2.35;;;1.40;;
25049;SDS011;13046;49.814;9.918;2024-02-23T01:15:37;2.63;;;0.90;;
25049;SDS011;13046;49.814;9.918;2024-02-23T01:18:04;2.25;;;0.88;;
25049;SDS011;13046;49.814;9.918;2024-02-23T01:20:32;0.93;;;0.80;;
25049;SDS011;13046;49.814;9.918;2024-02-23T01:22:59;0.85;;;0.85;;
25049;SDS011;13046;49.814;9.918;2024-02-23T01:25:25;0.93;;;0.70;;
25049;SDS011;13046;49.814;9.918;2024-02-23T01:27:51;1.10;;;0.82;;
25049;SDS011;13046;49.814;9.918;2024-02-23T01:30:17;2.30;;;0.80;;
25049;SDS011;13046;49.814;9.918;2024-02-23T01:32:46;2.60;;;0.77;;
25049;SDS011;13046;49.814;9.918;2024-02-23T01:35:12;3.30;;;0.68;;
25049;SDS011;13046;49.814;9.918;2024-02-23T01:37:38;0.80;;;0.80;;
25049;SDS011;13046;49.814;9.918;2024-02-23T01:40:04;1.20;;;1.10;;
25049;SDS011;13046;49.814;9.918;2024-02-23T01:42:31;1.20;;;0.68;;
25049;SDS011;13046;49.814;9.918;2024-02-23T01:44:57;0.98;;;0.80;;
25049;SDS011;13046;49.814;9.918;2024-02-23T01:47:23;1.23;;;0.70;;
25049;SDS011;13046;49.814;9.918;2024-02-23T01:49:50;2.45;;;0.60;;
25049;SDS011;13046;49.814;9.918;2024-02-23T01:52:16;2.40;;;0.60;;
25049;SDS011;13046;49.814;9.918;2024-02-23T01:54:43;1.38;;;0.95;;
25049;SDS011;13046;49.814;9.918;2024-02-23T01:57:09;1.05;;;0.60;;
25049;SDS011;13046;49.814;9.918;2024-02-23T01:59:36;1.33;;;0.60;;
25049;SDS011;13046;49.814;9.918;2024-02-23T02:02:06;3.08;;;1.27;;
25049;SDS011;13046;49.814;9.918;2024-02-23T02:04:32;1.23;;;0.68;;
25049;SDS011;13046;49.814;9.918;2024-02-23T02:06:58;4.03;;;1.05;;
25049;SDS011;13046;49.814;9.918;2024-02-23T02:09:25;0.88;;;0.70;;
25049;SDS011;13046;49.814;9.918;2024-02-23T02:11:51;1.77;;;0.77;;
25049;SDS011;13046;49.814;9.918;2024-02-23T02:14:17;1.02;;;0.82;;
25049;SDS011;13046;49.814;9.918;2024-02-23T02:16:43;3.13;;;1.83;;
25049;SDS011;13046;49.814;9.918;2024-02-23T02:19:10;3.08;;;0.75;;
25049;SDS011;13046;49.814;9.918;2024-02-23T02:21:37;4.38;;;0.57;;
25049;SDS011;13046;49.814;9.918;2024-02-23T02:24:03;1.30;;;0.70;;
25049;SDS011;13046;49.814;9.918;2024-02-23T02:26:32;1.15;;;1.00;;
25049;SDS011;13046;49.814;9.918;2024-02-23T02:28:59;2.95;;;0.57;;
25049;SDS011;13046;49.814;9.918;2024-02-23T02:31:25;4.35;;;1.20;;
25049;SDS011;13046;49.814;9.918;2024-02-23T02:33:51;1.95;;;0.98;;
25049;SDS011;13046;49.814;9.918;2024-02-23T02:36:17;0.68;;;0.60;;
25049;SDS011;13046;49.814;9.918;2024-02-23T02:38:43;2.85;;;0.80;;
25049;SDS011;13046;49.814;9.918;2024-02-23T02:41:09;1.63;;;0.80;;
25049;SDS011;13046;49.814;9.918;2024-02-23T02:43:35;5.47;;;0.98;;
25049;SDS011;13046;49.814;9.918;2024-02-23T02:46:01;1.35;;;0.70;;
25049;SDS011;13046;49.814;9.918;2024-02-23T02:48:27;2.50;;;0.90;;
25049;SDS011;13046;49.814;9.918;2024-02-23T02:50:53;2.08;;;0.80;;
25049;SDS011;13046;49.814;9.918;2024-02-23T02:53:20;2.38;;;0.73;;
25049;SDS011;13046;49.814;9.918;2024-02-23T02:55:46;2.53;;;0.77;;
25049;SDS011;13046;49.814;9.918;2024-02-23T02:58:13;5.53;;;1.10;;
25049;SDS011;13046;49.814;9.918;2024-02-23T03:00:39;2.00;;;1.10;;
25049;SDS011;13046;49.814;9.918;2024-02-23T03:03:05;5.10;;;2.00;;
25049;SDS011;13046;49.814;9.918;2024-02-23T03:05:31;2.55;;;0.95;;
25049;SDS011;13046;49.814;9.918;2024-02-23T03:07:57;6.72;;;1.13;;
25049;SDS011;13046;49.814;9.918;2024-02-23T03:10:24;3.10;;;0.80;;
25049;SDS011;13046;49.814;9.918;2024-02-23T03:12:50;2.47;;;1.33;;
25049;SDS011;13046;49.814;9.918;2024-02-23T03:15:16;5.05;;;1.15;;
25049;SDS011;13046;49.814;9.918;2024-02-23T03:17:42;3.33;;;1.17;;
25049;SDS011;13046;49.814;9.918;2024-02-23T03:20:08;1.70;;;0.52;;
25049;SDS011;13046;49.814;9.918;2024-02-23T03:22:35;1.02;;;0.55;;
25049;SDS011;13046;49.814;9.918;2024-02-23T03:25:01;1.27;;;0.50;;
25049;SDS011;13046;49.814;9.918;2024-02-23T03:27:33;1.42;;;0.50;;
25049;SDS011;13046;49.814;9.918;2024-02-23T03:29:59;0.90;;;0.45;;
25049;SDS011;13046;49.814;9.918;2024-02-23T03:32:25;2.15;;;0.95;;
25049;SDS011;13046;49.814;9.918;2024-02-23T03:34:51;1.98;;;0.55;;
25049;SDS011;13046;49.814;9.918;2024-02-23T03:37:17;2.67;;;0.65;;
25049;SDS011;13046;49.814;9.918;2024-02-23T03:39:43;3.47;;;1.35;;
25049;SDS011;13046;49.814;9.918;2024-02-23T03:42:09;1.02;;;0.70;;
25049;SDS011;13046;49.814;9.918;2024-02-23T03:44:35;2.20;;;1.33;;
25049;SDS011;13046;49.814;9.918;2024-02-23T03:47:02;1.17;;;0.55;;
25049;SDS011;13046;49.814;9.918;2024-02-23T03:49:28;1.00;;;0.60;;
25049;SDS011;13046;49.814;9.918;2024-02-23T03:51:54;2.40;;;1.10;;
25049;SDS011;13046;49.814;9.918;2024-02-23T03:54:20;1.88;;;0.90;;
25049;SDS011;13046;49.814;9.918;2024-02-23T03:56:46;2.25;;;0.80;;
25049;SDS011;13046;49.814;9.918;2024-02-23T03:59:12;1.77;;;1.50;;
25049;SDS011;13046;49.814;9.918;2024-02-23T04:01:38;3.88;;;1.05;;
25049;SDS011;13046;49.814;9.918;2024-02-23T04:04:04;2.33;;;0.90;;
25049;SDS011;13046;49.814;9.918;2024-02-23T04:06:31;1.85;;;0.90;;
25049;SDS011;13046;49.814;9.918;2024-02-23T04:08:57;2.13;;;0.90;;
25049;SDS011;13046;49.814;9.918;2024-02-23T04:11:23;3.05;;;1.67;;
25049;SDS011;13046;49.814;9.918;2024-02-23T04:13:50;1.10;;;0.82;;
25049;SDS011;13046;49.814;9.918;2024-02-23T04:16:16;4.18;;;1.00;;
25049;SDS011;13046;49.814;9.918;2024-02-23T04:18:42;8.02;;;1.20;;
25049;SDS011;13046;49.814;9.918;2024-02-23T04:21:08;4.18;;;1.30;;
25049;SDS011;13046;49.814;9.918;2024-02-23T04:23:34;4.40;;;0.98;;
25049;SDS011;13046;49.814;9.918;2024-02-23T04:26:00;3.40;;;0.90;;
25049;SDS011;13046;49.814;9.918;2024-02-23T04:28:26;2.20;;;0.82;;
25049;SDS011;13046;49.814;9.918;2024-02-23T04:30:56;3.78;;;1.40;;
25049;SDS011;13046;49.814;9.918;2024-02-23T04:33:22;2.50;;;1.10;;
25049;SDS011;13046;49.814;9.918;2024-02-23T04:35:48;5.72;;;1.40;;
25049;SDS011;13046;49.814;9.918;2024-02-23T04:38:14;3.72;;;1.30;;
25049;SDS011;13046;49.814;9.918;2024-02-23T04:40:40;2.05;;;1.83;;
25049;SDS011;13046;49.814;9.918;2024-02-23T04:43:06;3.42;;;3.15;;
25049;SDS011;13046;49.814;9.918;2024-02-23T04:45:32;4.47;;;1.33;;
25049;SDS011;13046;49.814;9.918;2024-02-23T04:47:58;3.47;;;1.00;;
25049;SDS011;13046;49.814;9.918;2024-02-23T04:50:24;2.05;;;0.88;;
25049;SDS011;13046;49.814;9.918;2024-02-23T04:52:50;2.85;;;1.25;;
25049;SDS011;13046;49.814;9.918;2024-02-23T04:55:16;0.77;;;0.65;;
25049;SDS011;13046;49.814;9.918;2024-02-23T04:57:42;4.05;;;1.40;;
25049;SDS011;13046;49.814;9.918;2024-02-23T05:00:09;2.95;;;1.30;;
25049;SDS011;13046;49.814;9.918;2024-02-23T05:02:35;1.65;;;1.10;;
25049;SDS011;13046;49.814;9.918;2024-02-23T05:05:04;1.02;;;0.93;;
25049;SDS011;13046;49.814;9.918;2024-02-23T05:07:30;4.93;;;1.00;;
25049;SDS011;13046;49.814;9.918;2024-02-23T05:09:57;4.35;;;1.38;;
25049;SDS011;13046;49.814;9.918;2024-02-23T05:12:23;3.50;;;1.20;;
25049;SDS011;13046;49.814;9.918;2024-02-23T05:14:49;3.13;;;1.00;;
25049;SDS011;13046;49.814;9.918;2024-02-23T05:17:15;5.05;;;1.05;;
25049;SDS011;13046;49.814;9.918;2024-02-23T05:19:42;2.85;;;1.20;;
25049;SDS011;13046;49.814;9.918;2024-02-23T05:22:08;3.35;;;1.30;;
25049;SDS011;13046;49.814;9.918;2024-02-23T05:24:34;2.50;;;1.58;;
25049;SDS011;13046;49.814;9.918;2024-02-23T05:27:00;5.68;;;1.55;;
25049;SDS011;13046;49.814;9.918;2024-02-23T05:29:29;3.95;;;1.08;;
25049;SDS011;13046;49.814;9.918;2024-02-23T05:31:56;2.63;;;1.23;;
25049;SDS011;13046;49.814;9.918;2024-02-23T05:34:22;1.23;;;0.98;;
25049;SDS011;13046;49.814;9.918;2024-02-23T05:36:48;2.15;;;0.90;;
25049;SDS011;13046;49.814;9.918;2024-02-23T05:39:17;4.35;;;1.23;;
25049;SDS011;13046;49.814;9.918;2024-02-23T05:41:44;1.40;;;0.90;;
25049;SDS011;13046;49.814;9.918;2024-02-23T05:44:10;4.22;;;0.98;;
25049;SDS011;13046;49.814;9.918;2024-02-23T05:46:38;1.95;;;0.98;;
25049;SDS011;13046;49.814;9.918;2024-02-23T05:49:04;3.17;;;1.50;;
25049;SDS011;13046;49.814;9.918;2024-02-23T05:51:30;2.53;;;1.25;;
25049;SDS011;13046;49.814;9.918;2024-02-23T05:53:56;0.90;;;0.90;;
25049;SDS011;13046;49.814;9.918;2024-02-23T05:56:23;0.95;;;0.88;;
25049;SDS011;13046;49.814;9.918;2024-02-23T05:58:49;6.47;;;1.35;;
25049;SDS011;13046;49.814;9.918;2024-02-23T06:01:16;1.17;;;0.80;;
25049;SDS011;13046;49.814;9.918;2024-02-23T06:03:43;4.75;;;1.55;;
25049;SDS011;13046;49.814;9.918;2024-02-23T06:06:09;3.35;;;1.15;;
25049;SDS011;13046;49.814;9.918;2024-02-23T06:08:36;1.77;;;1.23;;
25049;SDS011;13046;49.814;9.918;2024-02-23T06:11:02;1.70;;;1.33;;
25049;SDS011;13046;49.814;9.918;2024-02-23T06:13:32;4.25;;;1.65;;
25049;SDS011;13046;49.814;9.918;2024-02-23T06:15:59;2.47;;;1.60;;
25049;SDS011;13046;49.814;9.918;2024-02-23T06:18:25;3.33;;;1.58;;
25049;SDS011;13046;49.814;9.918;2024-02-23T06:20:51;1.40;;;1.30;;
25049;SDS011;13046;49.814;9.918;2024-02-23T06:23:17;1.95;;;1.33;;
25049;SDS011;13046;49.814;9.918;2024-02-23T06:25:44;2.50;;;1.63;;
25049;SDS011;13046;49.814;9.918;2024-02-23T06:28:10;6.07;;;1.70;;
25049;SDS011;13046;49.814;9.918;2024-02-23T06:30:36;3.80;;;1.10;;
25049;SDS011;13046;49.814;9.918;2024-02-23T06:33:02;2.40;;;1.67;;
25049;SDS011;13046;49.814;9.918;2024-02-23T06:35:29;3.53;;;1.92;;
25049;SDS011;13046;49.814;9.918;2024-02-23T06:37:56;3.72;;;1.75;;
25049;SDS011;13046;49.814;9.918;2024-02-23T06:40:22;4.25;;;1.20;;
25049;SDS011;13046;49.814;9.918;2024-02-23T06:42:48;2.35;;;1.80;;
25049;SDS011;13046;49.814;9.918;2024-02-23T06:45:15;7.70;;;2.13;;
25049;SDS011;13046;49.814;9.918;2024-02-23T06:47:41;3.35;;;2.70;;
25049;SDS011;13046;49.814;9.918;2024-02-23T06:50:07;3.30;;;1.75;;
25049;SDS011;13046;49.814;9.918;2024-02-23T06:52:34;3.85;;;2.63;;
25049;SDS011;13046;49.814;9.918;2024-02-23T06:55:00;4.03;;;2.60;;
25049;SDS011;13046;49.814;9.918;2024-02-23T06:57:26;5.13;;;2.28;;
25049;SDS011;13046;49.814;9.918;2024-02-23T06:59:52;4.53;;;1.85;;
25049;SDS011;13046;49.814;9.918;2024-02-23T07:02:18;4.97;;;2.25;;
25049;SDS011;13046;49.814;9.918;2024-02-23T07:04:44;10.27;;;2.95;;
25049;SDS011;13046;49.814;9.918;2024-02-23T07:07:11;17.27;;;5.57;;
25049;SDS011;13046;49.814;9.918;2024-02-23T07:09:37;150.05;;;21.73;;
25049;SDS011;13046;49.814;9.918;2024-02-23T07:12:03;93.70;;;14.07;;
25049;SDS011;13046;49.814;9.918;2024-02-23T07:14:29;12.55;;;3.25;;
25049;SDS011;13046;49.814;9.918;2024-02-23T07:16:55;12.18;;;4.35;;
25049;SDS011;13046;49.814;9.918;2024-02-23T07:19:21;16.13;;;3.95;;
25049;SDS011;13046;49.814;9.918;2024-02-23T07:21:47;6.60;;;2.60;;
25049;SDS011;13046;49.814;9.918;2024-02-23T07:24:13;13.73;;;2.58;;
25049;SDS011;13046;49.814;9.918;2024-02-23T07:26:39;6.30;;;3.05;;
25049;SDS011;13046;49.814;9.918;2024-02-23T07:29:06;17.05;;;8.73;;
25049;SDS011;13046;49.814;9.918;2024-02-23T07:31:32;28.92;;;15.80;;
25049;SDS011;13046;49.814;9.918;2024-02-23T07:33:58;23.60;;;13.00;;
25049;SDS011;13046;49.814;9.918;2024-02-23T07:36:24;11.82;;;7.72;;
25049;SDS011;13046;49.814;9.918;2024-02-23T07:38:51;14.15;;;8.10;;
25049;SDS011;13046;49.814;9.918;2024-02-23T07:41:17;4.50;;;2.88;;
25049;SDS011;13046;49.814;9.918;2024-02-23T07:43:43;4.72;;;3.58;;
25049;SDS011;13046;49.814;9.918;2024-02-23T07:46:10;15.50;;;12.35;;
25049;SDS011;13046;49.814;9.918;2024-02-23T07:48:36;6.90;;;4.45;;
25049;SDS011;13046;49.814;9.918;2024-02-23T07:51:02;8.10;;;6.47;;
25049;SDS011;13046;49.814;9.918;2024-02-23T07:53:29;6.30;;;3.28;;
25049;SDS011;13046;49.814;9.918;2024-02-23T07:55:56;14.57;;;8.35;;
25049;SDS011;13046;49.814;9.918;2024-02-23T07:58:24;15.23;;;8.70;;
25049;SDS011;13046;49.814;9.918;2024-02-23T08:00:53;3.97;;;3.15;;
25049;SDS011;13046;49.814;9.918;2024-02-23T08:03:20;6.80;;;4.13;;
25049;SDS011;13046;49.814;9.918;2024-02-23T08:05:46;9.82;;;7.03;;
25049;SDS011;13046;49.814;9.918;2024-02-23T08:08:12;6.60;;;5.60;;
25049;SDS011;13046;49.814;9.918;2024-02-23T08:10:38;3.33;;;1.40;;
25049;SDS011;13046;49.814;9.918;2024-02-23T08:13:04;5.40;;;3.13;;
25049;SDS011;13046;49.814;9.918;2024-02-23T08:15:30;5.85;;;3.20;;
25049;SDS011;13046;49.814;9.918;2024-02-23T08:17:56;4.25;;;3.45;;
25049;SDS011;13046;49.814;9.918;2024-02-23T08:20:23;5.97;;;3.10;;
25049;SDS011;13046;49.814;9.918;2024-02-23T08:22:49;5.80;;;2.90;;
25049;SDS011;13046;49.814;9.918;2024-02-23T08:25:15;6.03;;;2.47;;
25049;SDS011;13046;49.814;9.918;2024-02-23T08:27:41;4.25;;;1.90;;
25049;SDS011;13046;49.814;9.918;2024-02-23T08:30:08;12.10;;;8.60;;
25049;SDS011;13046;49.814;9.918;2024-02-23T08:32:36;4.45;;;1.90;;
25049;SDS011;13046;49.814;9.918;2024-02-23T08:35:02;3.53;;;1.85;;
25049;SDS011;13046;49.814;9.918;2024-02-23T08:37:28;3.30;;;1.83;;
25049;SDS011;13046;49.814;9.918;2024-02-23T08:39:54;3.53;;;1.40;;
25049;SDS011;13046;49.814;9.918;2024-02-23T08:42:21;6.97;;;2.88;;
25049;SDS011;13046;49.814;9.918;2024-02-23T08:44:47;6.00;;;1.90;;
25049;SDS011;13046;49.814;9.918;2024-02-23T08:47:14;4.97;;;1.80;;
25049;SDS011;13046;49.814;9.918;2024-02-23T08:49:40;4.32;;;1.50;;
25049;SDS011;13046;49.814;9.918;2024-02-23T08:52:06;3.85;;;1.50;;
25049;SDS011;13046;49.814;9.918;2024-02-23T08:54:32;6.65;;;1.48;;
25049;SDS011;13046;49.814;9.918;2024-02-23T08:56:58;4.38;;;1.38;;
25049;SDS011;13046;49.814;9.918;2024-02-23T08:59:24;3.55;;;1.30;;
25049;SDS011;13046;49.814;9.918;2024-02-23T09:01:50;4.32;;;1.33;;
25049;SDS011;13046;49.814;9.918;2024-02-23T09:04:16;4.75;;;1.17;;
25049;SDS011;13046;49.814;9.918;2024-02-23T09:06:42;1.92;;;1.00;;
25049;SDS011;13046;49.814;9.918;2024-02-23T09:09:08;1.85;;;0.90;;
25049;SDS011;13046;49.814;9.918;2024-02-23T09:11:36;4.85;;;1.40;;
25049;SDS011;13046;49.814;9.918;2024-02-23T09:14:02;2.67;;;1.08;;
25049;SDS011;13046;49.814;9.918;2024-02-23T09:16:29;4.22;;;1.00;;
25049;SDS011;13046;49.814;9.918;2024-02-23T09:18:55;3.22;;;1.27;;
25049;SDS011;13046;49.814;9.918;2024-02-23T09:21:21;3.85;;;1.42;;
25049;SDS011;13046;49.814;9.918;2024-02-23T09:23:47;4.78;;;1.33;;
25049;SDS011;13046;49.814;9.918;2024-02-23T09:26:13;9.63;;;1.83;;
25049;SDS011;13046;49.814;9.918;2024-02-23T09:28:39;3.17;;;1.30;;
25049;SDS011;13046;49.814;9.918;2024-02-23T09:31:10;3.22;;;1.30;;
25049;SDS011;13046;49.814;9.918;2024-02-23T09:33:36;4.82;;;1.50;;
25049;SDS011;13046;49.814;9.918;2024-02-23T09:36:02;2.58;;;1.25;;
25049;SDS011;13046;49.814;9.918;2024-02-23T09:38:28;7.53;;;1.42;;
25049;SDS011;13046;49.814;9.918;2024-02-23T09:40:57;9.85;;;2.83;;
25049;SDS011;13046;49.814;9.918;2024-02-23T09:43:25;4.53;;;1.67;;
25049;SDS011;13046;49.814;9.918;2024-02-23T09:45:55;3.60;;;1.17;;
25049;SDS011;13046;49.814;9.918;2024-02-23T09:48:22;5.20;;;1.90;;
25049;SDS011;13046;49.814;9.918;2024-02-23T09:50:49;7.50;;;2.50;;
25049;SDS011;13046;49.814;9.918;2024-02-23T09:53:15;6.00;;;2.63;;
25049;SDS011;13046;49.814;9.918;2024-02-23T09:55:43;4.60;;;2.75;;
25049;SDS011;13046;49.814;9.918;2024-02-23T09:58:09;6.30;;;2.05;;
25049;SDS011;13046;49.814;9.918;2024-02-23T10:00:37;5.65;;;3.08;;
25049;SDS011;13046;49.814;9.918;2024-02-23T10:03:04;5.60;;;1.65;;
25049;SDS011;13046;49.814;9.918;2024-02-23T10:05:30;8.10;;;3.28;;
25049;SDS011;13046;49.814;9.918;2024-02-23T10:07:59;7.43;;;2.80;;
25049;SDS011;13046;49.814;9.918;2024-02-23T10:10:30;5.68;;;2.03;;
25049;SDS011;13046;49.814;9.918;2024-02-23T10:12:59;5.28;;;2.17;;
25049;SDS011;13046;49.814;9.918;2024-02-23T10:15:29;8.18;;;3.47;;
25049;SDS011;13046;49.814;9.918;2024-02-23T10:17:56;6.10;;;1.58;;
25049;SDS011;13046;49.814;9.918;2024-02-23T10:20:22;6.45;;;1.80;;
25049;SDS011;13046;49.814;9.918;2024-02-23T10:22:48;6.38;;;1.75;;
25049;SDS011;13046;49.814;9.918;2024-02-23T10:25:15;7.53;;;3.00;;
25049;SDS011;13046;49.814;9.918;2024-02-23T10:27:41;5.57;;;2.50;;
25049;SDS011;13046;49.814;9.918;2024-02-23T10:30:08;10.18;;;2.28;;
25049;SDS011;13046;49.814;9.918;2024-02-23T10:32:36;3.13;;;1.60;;
25049;SDS011;13046;49.814;9.918;2024-02-23T10:35:04;6.13;;;2.33;;
25049;SDS011;13046;49.814;9.918;2024-02-23T10:37:33;7.63;;;4.82;;
25049;SDS011;13046;49.814;9.918;2024-02-23T10:40:00;8.90;;;4.88;;
25049;SDS011;13046;49.814;9.918;2024-02-23T10:42:27;8.35;;;4.53;;
25049;SDS011;13046;49.814;9.918;2024-02-23T10:44:55;12.38;;;9.05;;
25049;SDS011;13046;49.814;9.918;2024-02-23T10:47:26;7.60;;;2.30;;
25049;SDS011;13046;49.814;9.918;2024-02-23T10:49:52;2.85;;;1.30;;
25049;SDS011;13046;49.814;9.918;2024-02-23T10:52:18;5.68;;;2.25;;
25049;SDS011;13046;49.814;9.918;2024-02-23T10:54:45;3.83;;;1.95;;
25049;SDS011;13046;49.814;9.918;2024-02-23T10:57:12;4.43;;;2.35;;
25049;SDS011;13046;49.814;9.918;2024-02-23T10:59:39;5.35;;;1.40;;
25049;SDS011;13046;49.814;9.918;2024-02-23T11:02:05;7.18;;;1.92;;
25049;SDS011;13046;49.814;9.918;2024-02-23T11:04:32;4.70;;;1.13;;
25049;SDS011;13046;49.814;9.918;2024-02-23T11:06:58;11.38;;;3.92;;
25049;SDS011;13046;49.814;9.918;2024-02-23T11:09:29;7.43;;;2.17;;
25049;SDS011;13046;49.814;9.918;2024-02-23T11:11:58;6.43;;;1.77;;
25049;SDS011;13046;49.814;9.918;2024-02-23T11:14:36;5.68;;;1.80;;
25049;SDS011;13046;49.814;9.918;2024-02-23T11:17:03;2.42;;;1.65;;
25049;SDS011;13046;49.814;9.918;2024-02-23T11:19:39;5.03;;;1.98;;
25049;SDS011;13046;49.814;9.918;2024-02-23T11:22:09;5.30;;;1.48;;
25049;SDS011;13046;49.814;9.918;2024-02-23T11:24:41;2.17;;;1.13;;
25049;SDS011;13046;49.814;9.918;2024-02-23T11:27:12;6.43;;;2.78;;
25049;SDS011;13046;49.814;9.918;2024-02-23T11:29:39;3.38;;;2.08;;
25049;SDS011;13046;49.814;9.918;2024-02-23T11:32:12;7.07;;;3.70;;
25049;SDS011;13046;49.814;9.918;2024-02-23T11:34:38;7.00;;;4.45;;
25049;SDS011;13046;49.814;9.918;2024-02-23T11:37:11;4.10;;;1.40;;
25049;SDS011;13046;49.814;9.918;2024-02-23T11:39:37;5.43;;;1.23;;
25049;SDS011;13046;49.814;9.918;2024-02-23T11:42:05;2.70;;;1.20;;
25049;SDS011;13046;49.814;9.918;2024-02-23T11:44:31;5.10;;;2.35;;
25049;SDS011;13046;49.814;9.918;2024-02-23T11:47:00;4.28;;;1.23;;
25049;SDS011;13046;49.814;9.918;2024-02-23T11:49:30;1.45;;;0.80;;
25049;SDS011;13046;49.814;9.918;2024-02-23T11:51:57;5.22;;;1.05;;
25049;SDS011;13046;49.814;9.918;2024-02-23T11:54:23;3.75;;;1.33;;
25049;SDS011;13046;49.814;9.918;2024-02-23T11:56:50;3.33;;;1.10;;
25049;SDS011;13046;49.814;9.918;2024-02-23T11:59:18;2.70;;;1.33;;
25049;SDS011;13046;49.814;9.918;2024-02-23T12:01:45;5.22;;;1.77;;
25049;SDS011;13046;49.814;9.918;2024-02-23T12:04:11;2.28;;;1.10;;
25049;SDS011;13046;49.814;9.918;2024-02-23T12:06:38;4.03;;;1.20;;
25049;SDS011;13046;49.814;9.918;2024-02-23T12:09:04;3.30;;;0.90;;
25049;SDS011;13046;49.814;9.918;2024-02-23T12:11:30;2.67;;;1.38;;
25049;SDS011;13046;49.814;9.918;2024-02-23T12:13:56;3.22;;;1.20;;
25049;SDS011;13046;49.814;9.918;2024-02-23T12:16:22;7.13;;;1.25;;
25049;SDS011;13046;49.814;9.918;2024-02-23T12:18:55;5.93;;;1.45;;
25049;SDS011;13046;49.814;9.918;2024-02-23T12:21:22;4.57;;;1.40;;
25049;SDS011;13046;49.814;9.918;2024-02-23T12:23:49;6.18;;;1.45;;
25049;SDS011;13046;49.814;9.918;2024-02-23T12:26:16;1.98;;;1.23;;
25049;SDS011;13046;49.814;9.918;2024-02-23T12:28:42;3.42;;;1.50;;
25049;SDS011;13046;49.814;9.918;2024-02-23T12:31:09;12.07;;;3.13;;
25049;SDS011;13046;49.814;9.918;2024-02-23T12:33:36;3.25;;;1.33;;
25049;SDS011;13046;49.814;9.918;2024-02-23T12:36:03;3.53;;;1.20;;
25049;SDS011;13046;49.814;9.918;2024-02-23T14:39:47;7.68;;;4.68;;
25049;SDS011;13046;49.814;9.918;2024-02-23T14:42:14;6.72;;;5.00;;
25049;SDS011;13046;49.814;9.918;2024-02-23T14:44:40;10.55;;;9.25;;
25049;SDS011;13046;49.814;9.918;2024-02-23T14:47:06;9.57;;;6.95;;
25049;SDS011;13046;49.814;9.918;2024-02-23T14:49:32;2.60;;;2.40;;
25049;SDS011;13046;49.814;9.918;2024-02-23T14:51:58;7.50;;;1.98;;
25049;SDS011;13046;49.814;9.918;2024-02-23T14:54:24;3.35;;;2.50;;
25049;SDS011;13046;49.814;9.918;2024-02-23T14:56:50;4.70;;;2.22;;
25049;SDS011;13046;49.814;9.918;2024-02-23T14:59:17;8.05;;;2.75;;
25049;SDS011;13046;49.814;9.918;2024-02-23T15:01:43;3.05;;;2.22;;
25049;SDS011;13046;49.814;9.918;2024-02-23T15:04:09;3.50;;;1.98;;
25049;SDS011;13046;49.814;9.918;2024-02-23T15:06:37;7.45;;;3.83;;
25049;SDS011;13046;49.814;9.918;2024-02-23T15:09:04;7.90;;;2.88;;
25049;SDS011;13046;49.814;9.918;2024-02-23T15:11:30;8.40;;;5.68;;
25049;SDS011;13046;49.814;9.918;2024-02-23T15:13:56;7.40;;;3.47;;
25049;SDS011;13046;49.814;9.918;2024-02-23T15:16:26;3.72;;;1.98;;
25049;SDS011;13046;49.814;9.918;2024-02-23T15:18:52;4.85;;;2.95;;
25049;SDS011;13046;49.814;9.918;2024-02-23T15:21:19;7.15;;;1.77;;
25049;SDS011;13046;49.814;9.918;2024-02-23T15:23:45;7.78;;;6.53;;
25049;SDS011;13046;49.814;9.918;2024-02-23T15:26:11;6.47;;;5.38;;
25049;SDS011;13046;49.814;9.918;2024-02-23T15:28:38;7.90;;;4.03;;
25049;SDS011;13046;49.814;9.918;2024-02-23T15:31:04;6.05;;;4.88;;
25049;SDS011;13046;49.814;9.918;2024-02-23T15:33:30;4.50;;;1.88;;
25049;SDS011;13046;49.814;9.918;2024-02-23T15:35:56;3.08;;;1.35;;
25049;SDS011;13046;49.814;9.918;2024-02-23T15:38:22;3.75;;;1.80;;
25049;SDS011;13046;49.814;9.918;2024-02-23T15:40:48;4.88;;;1.52;;
25049;SDS011;13046;49.814;9.918;2024-02-23T15:43:14;3.15;;;2.13;;
25049;SDS011;13046;49.814;9.918;2024-02-23T15:45:41;3.58;;;3.20;;
25049;SDS011;13046;49.814;9.918;2024-02-23T15:48:08;4.63;;;3.33;;
25049;SDS011;13046;49.814;9.918;2024-02-23T15:50:34;4.05;;;2.22;;
25049;SDS011;13046;49.814;9.918;2024-02-23T15:53:00;2.20;;;1.33;;
25049;SDS011;13046;49.814;9.918;2024-02-23T15:55:29;1.80;;;1.25;;
25049;SDS011;13046;49.814;9.918;2024-02-23T15:57:56;3.45;;;2.17;;
25049;SDS011;13046;49.814;9.918;2024-02-23T16:00:22;10.85;;;2.17;;
25049;SDS011;13046;49.814;9.918;2024-02-23T16:02:48;5.65;;;2.50;;
25049;SDS011;13046;49.814;9.918;2024-02-23T16:05:14;3.55;;;1.50;;
25049;SDS011;13046;49.814;9.918;2024-02-23T16:07:40;5.25;;;2.70;;
25049;SDS011;13046;49.814;9.918;2024-02-23T16:10:05;1.35;;;1.15;;
25049;SDS011;13046;49.814;9.918;2024-02-23T16:12:32;3.97;;;1.20;;
25049;SDS011;13046;49.814;9.918;2024-02-23T16:14:58;6.25;;;3.83;;
25049;SDS011;13046;49.814;9.918;2024-02-23T16:17:24;2.67;;;1.75;;
25049;SDS011;13046;49.814;9.918;2024-02-23T16:19:50;7.68;;;3.65;;
25049;SDS011;13046;49.814;9.918;2024-02-23T16:22:15;6.78;;;6.15;;
25049;SDS011;13046;49.814;9.918;2024-02-23T16:24:41;3.92;;;3.55;;
25049;SDS011;13046;49.814;9.918;2024-02-23T16:27:07;3.83;;;2.28;;
25049;SDS011;13046;49.814;9.918;2024-02-23T16:29:33;4.22;;;1.58;;
25049;SDS011;13046;49.814;9.918;2024-02-23T16:31:59;6.88;;;3.92;;
25049;SDS011;13046;49.814;9.918;2024-02-23T16:34:24;5.53;;;3.13;;
25049;SDS011;13046;49.814;9.918;2024-02-23T16:36:50;6.30;;;3.30;;
25049;SDS011;13046;49.814;9.918;2024-02-23T16:39:16;5.13;;;1.90;;
25049;SDS011;13046;49.814;9.918;2024-02-23T16:41:41;3.33;;;1.98;;
25049;SDS011;13046;49.814;9.918;2024-02-23T16:44:09;6.32;;;2.42;;